createdAt,value
2022-10-29T00:02:46.050Z,47.38
2022-10-29T00:07:49.913Z,48.87
2022-10-29T00:12:53.670Z,51.47
2022-10-29T00:17:58.972Z,41.28
2022-10-29T00:23:02.896Z,46.33
2022-10-29T00:28:06.726Z,43.85
2022-10-29T00:33:13.110Z,46.60
2022-10-29T00:38:16.954Z,43.42
2022-10-29T00:43:22.685Z,40.55
2022-10-29T00:48:29.631Z,42.60
2022-10-29T00:53:37.375Z,43.20
2022-10-29T00:58:41.610Z,47.55
2022-10-29T01:03:47.309Z,39.53
2022-10-29T01:08:51.057Z,46.78
2022-10-29T01:14:04.286Z,39.08
2022-10-29T01:19:15.419Z,43.35
2022-10-29T01:24:58.417Z,42.83
2022-10-29T01:30:07.293Z,45.17
2022-10-29T01:35:18.021Z,44.42
2022-10-29T01:40:25.660Z,44.95
2022-10-29T01:45:34.393Z,40.15
2022-10-29T01:50:41.662Z,42.40
2022-10-29T01:55:45.448Z,38.97
2022-10-29T02:00:53.805Z,39.03
2022-10-29T02:06:02.448Z,43.75
2022-10-29T02:11:10.965Z,36.20
2022-10-29T02:16:15.446Z,46.75
2022-10-29T02:21:21.473Z,37.58
2022-10-29T02:26:25.258Z,35.70
2022-10-29T02:31:29.021Z,33.95
2022-10-29T02:36:34.239Z,39.67
2022-10-29T02:41:38.036Z,35.83
2022-10-29T02:46:42.058Z,41.30
2022-10-29T02:51:47.240Z,39.35
2022-10-29T02:56:51.028Z,35.30
2022-10-29T03:01:54.840Z,40.63
2022-10-29T03:07:00.809Z,36.38
2022-10-29T03:12:04.840Z,37.05
2022-10-29T03:17:08.597Z,40.90
2022-10-29T03:22:13.750Z,35.97
2022-10-29T03:27:17.506Z,39.55
2022-10-29T03:32:21.261Z,34.15
2022-10-29T03:37:26.418Z,39.80
2022-10-29T03:42:31.278Z,37.03
2022-10-29T03:47:35.271Z,39.47
2022-10-29T03:52:40.423Z,33.53
2022-10-29T03:57:44.217Z,30.80
2022-10-29T04:02:48.045Z,28.20
2022-10-29T04:07:53.259Z,26.02
2022-10-29T04:12:57.329Z,25.45
2022-10-29T04:18:01.524Z,30.15
2022-10-29T04:28:43.075Z,29.15
2022-10-29T04:33:47.380Z,30.92
2022-10-29T04:38:52.851Z,33.28
2022-10-29T04:43:56.629Z,23.13
2022-10-29T04:49:00.617Z,35.85
2022-10-29T04:54:06.078Z,33.92
2022-10-29T04:59:09.853Z,35.90
2022-10-29T05:04:13.612Z,38.83
2022-10-29T05:09:18.761Z,41.95
2022-10-29T05:14:22.525Z,41.58
2022-10-29T05:19:26.279Z,54.45
2022-10-29T05:24:31.480Z,32.47
2022-10-29T05:29:35.280Z,43.78
2022-10-29T05:34:41.994Z,34.20
2022-10-29T05:39:49.457Z,30.33
2022-10-29T05:44:53.218Z,34.22
2022-10-29T05:49:56.977Z,42.78
2022-10-29T05:55:02.145Z,25.77
2022-10-29T06:00:06.956Z,43.17
2022-10-29T06:05:15.910Z,33.03
2022-10-29T06:10:21.066Z,30.20
2022-10-29T06:15:25.049Z,29.98
2022-10-29T06:20:28.821Z,40.80
2022-10-29T06:25:34.251Z,30.98
2022-10-29T06:30:38.065Z,31.53
2022-10-29T06:35:41.873Z,32.85
2022-10-29T06:40:52.890Z,33.08
2022-10-29T06:45:56.815Z,27.20
2022-10-29T06:51:01.143Z,32.35
2022-10-29T06:56:06.572Z,37.60
2022-10-29T07:01:10.551Z,32.17
2022-10-29T07:06:14.484Z,32.75
2022-10-29T07:11:19.655Z,34.10
2022-10-29T07:16:23.422Z,33.53
2022-10-29T07:21:27.194Z,31.73
2022-10-29T07:26:32.370Z,30.27
2022-10-29T07:31:36.206Z,35.13
2022-10-29T07:36:39.972Z,27.08
2022-10-29T07:41:45.128Z,26.08
2022-10-29T07:46:48.907Z,32.77
2022-10-29T07:51:52.682Z,24.92
2022-10-29T07:56:57.848Z,25.73
2022-10-29T08:02:01.727Z,22.97
2022-10-29T08:07:05.574Z,31.13
2022-10-29T08:12:11.391Z,21.63
2022-10-29T08:17:15.213Z,21.27
2022-10-29T08:22:18.981Z,24.90
2022-10-29T08:27:24.293Z,28.55
2022-10-29T08:32:28.123Z,27.13
2022-10-29T08:37:31.910Z,26.67
2022-10-29T08:42:47.702Z,38.08
2022-10-29T08:48:12.818Z,29.60
2022-10-29T08:53:23.156Z,27.73
2022-10-29T08:58:35.509Z,35.67
2022-10-29T09:03:39.386Z,33.90
2022-10-29T09:08:55.943Z,30.35
2022-10-29T09:14:09.089Z,31.88
2022-10-29T09:19:34.478Z,31.60
2022-10-29T09:24:41.705Z,27.53
2022-10-29T09:30:09.882Z,23.73
2022-10-29T09:35:15.662Z,18.20
2022-10-29T09:40:31.402Z,15.18
2022-10-29T09:50:54.040Z,17.88
2022-10-29T09:55:57.830Z,18.77
2022-10-29T10:01:03.051Z,19.05
2022-10-29T10:06:08.134Z,18.95
2022-10-29T10:11:20.434Z,17.38
2022-10-29T10:16:27.838Z,18.02
2022-10-29T10:21:33.036Z,20.95
2022-10-29T10:26:39.484Z,28.08
2022-10-29T10:31:45.730Z,23.75
2022-10-29T10:36:52.364Z,19.95
2022-10-29T10:41:57.258Z,21.83
2022-10-29T10:47:07.005Z,21.17
2022-10-29T10:52:17.020Z,18.23
2022-10-29T10:57:22.977Z,18.48
2022-10-29T11:02:33.448Z,15.13
2022-10-29T11:07:38.771Z,14.13
2022-10-29T11:12:45.242Z,9.23
2022-10-29T11:17:54.535Z,13.57
2022-10-29T11:23:07.462Z,10.90
2022-10-29T11:28:21.100Z,13.57
2022-10-29T11:33:35.147Z,16.98
2022-10-29T11:38:41.719Z,9.03
2022-10-29T11:43:45.600Z,9.68
2022-10-29T11:48:56.247Z,8.67
2022-10-29T11:54:02.700Z,8.70
2022-10-29T11:59:09.688Z,6.90
2022-10-29T12:04:25.489Z,12.88
2022-10-29T12:09:41.558Z,11.70
2022-10-29T12:14:50.038Z,16.70
2022-10-29T12:19:59.774Z,6.65
2022-10-29T12:25:16.394Z,10.10
2022-10-29T12:30:20.904Z,10.05
2022-10-29T12:35:31.156Z,10.90
2022-10-29T12:40:36.458Z,8.73
2022-10-29T12:46:18.963Z,9.00
2022-10-29T12:51:17.485Z,14.05
2022-10-29T12:56:21.588Z,12.25
2022-10-29T13:07:24.847Z,9.40
2022-10-29T13:13:01.301Z,12.70
2022-10-29T13:18:10.368Z,14.73
2022-10-29T13:23:37.634Z,8.85
2022-10-29T13:28:53.133Z,15.60
2022-10-29T13:33:57.030Z,11.10
2022-10-29T13:39:21.402Z,11.67
2022-10-29T13:44:26.832Z,8.00
2022-10-29T13:49:32.960Z,11.30
2022-10-29T13:54:40.655Z,15.65
2022-10-29T13:59:47.964Z,14.50
2022-10-29T14:04:55.993Z,13.43
2022-10-29T14:10:04.822Z,13.52
2022-10-29T14:15:11.415Z,9.07
2022-10-29T14:20:24.233Z,14.35
2022-10-29T14:25:32.400Z,12.23
2022-10-29T14:30:36.398Z,13.65
2022-10-29T14:35:40.534Z,11.60
2022-10-29T14:40:46.690Z,14.48
2022-10-29T14:45:50.529Z,13.55
2022-10-29T14:50:56.683Z,11.25
2022-10-29T14:56:04.434Z,10.07
2022-10-29T15:01:10.103Z,17.05
2022-10-29T15:11:38.118Z,13.32
2022-10-29T15:16:42.598Z,17.30
2022-10-29T15:21:46.713Z,17.30
2022-10-29T15:26:54.060Z,25.20
2022-10-29T15:31:58.611Z,12.85
2022-10-29T15:37:16.454Z,15.95
2022-10-29T15:42:23.676Z,14.93
2022-10-29T15:47:30.429Z,22.85
2022-10-29T15:52:35.502Z,19.85
2022-10-29T15:57:40.803Z,19.53
2022-10-29T16:02:44.715Z,31.27
2022-10-29T16:07:49.438Z,19.92
2022-10-29T16:12:55.001Z,25.63
2022-10-29T16:17:59.285Z,80.55
2022-10-29T16:23:05.489Z,22.52
2022-10-29T16:33:14.271Z,23.25
2022-10-29T16:38:18.689Z,29.92
2022-10-29T16:43:23.858Z,29.17
2022-10-29T16:48:27.641Z,27.33
2022-10-29T16:53:31.476Z,32.33
2022-10-29T16:58:36.654Z,31.48
2022-10-29T17:03:40.558Z,22.93
2022-10-29T17:08:44.340Z,26.98
2022-10-29T17:13:49.526Z,29.27
2022-10-29T17:18:53.396Z,28.43
2022-10-29T17:23:57.186Z,31.10
2022-10-29T17:29:02.456Z,32.03
2022-10-29T17:34:06.397Z,36.37
2022-10-29T17:39:10.439Z,32.22
2022-10-29T17:44:15.644Z,31.13
2022-10-29T17:49:19.412Z,31.90
2022-10-29T17:54:23.198Z,36.17
2022-10-29T17:59:28.346Z,37.47
2022-10-29T18:04:32.119Z,37.83
2022-10-29T18:09:35.919Z,38.58
2022-10-29T18:14:41.087Z,43.08
2022-10-29T18:19:44.898Z,35.47
2022-10-29T18:24:48.693Z,30.52
2022-10-29T18:29:54.021Z,40.75
2022-10-29T18:34:57.787Z,39.73
2022-10-29T18:40:01.565Z,43.13
2022-10-29T18:45:07.940Z,40.17
2022-10-29T18:50:11.739Z,39.53
2022-10-29T18:55:15.566Z,34.50
2022-10-29T19:00:20.826Z,38.03
2022-10-29T19:05:24.700Z,35.70
2022-10-29T19:10:28.545Z,40.63
2022-10-29T19:15:35.021Z,40.13
2022-10-29T19:20:38.877Z,38.35
2022-10-29T19:25:42.644Z,37.33
2022-10-29T19:30:47.811Z,33.50
2022-10-29T19:35:51.593Z,33.97
2022-10-29T19:40:57.042Z,27.80
2022-10-29T19:46:02.511Z,30.47
2022-10-29T19:51:06.881Z,30.30
2022-10-29T19:56:12.220Z,38.83
2022-10-29T20:01:18.484Z,35.20
2022-10-29T20:06:22.519Z,33.88
2022-10-29T20:11:26.353Z,32.15
2022-10-29T20:16:31.501Z,26.15
2022-10-29T20:21:35.274Z,26.60
2022-10-29T20:26:39.041Z,25.02
2022-10-29T20:31:44.263Z,31.65
2022-10-29T20:36:48.157Z,27.27
2022-10-29T20:41:52.050Z,30.63
2022-10-29T20:46:57.273Z,25.02
2022-10-29T20:52:01.038Z,31.33
2022-10-29T20:57:04.918Z,25.80
2022-10-29T21:02:10.887Z,26.05
2022-10-29T21:12:18.221Z,21.35
2022-10-29T21:17:23.395Z,22.02
2022-10-29T21:22:27.167Z,25.27
2022-10-29T21:27:30.927Z,21.33
2022-10-29T21:32:36.098Z,19.45
2022-10-29T21:37:39.892Z,24.65
2022-10-29T21:42:43.662Z,20.23
2022-10-29T21:47:49.461Z,23.98
2022-10-29T21:52:53.283Z,18.50
2022-10-29T21:57:57.357Z,23.60
2022-10-29T22:03:04.538Z,26.88
2022-10-29T22:08:08.721Z,18.73
2022-10-29T22:13:14.464Z,24.08
2022-10-29T22:18:19.886Z,24.90
2022-10-29T22:23:23.748Z,19.53
2022-10-29T22:28:27.554Z,21.95
2022-10-29T22:33:33.170Z,20.15
2022-10-29T22:38:37.386Z,19.10
2022-10-29T22:43:41.197Z,22.48
2022-10-29T22:48:47.148Z,17.70
2022-10-29T22:53:51.784Z,15.70
2022-10-29T22:58:55.837Z,17.52
2022-10-29T23:04:01.189Z,18.05
2022-10-29T23:09:05.034Z,18.30
2022-10-29T23:14:08.809Z,17.42
2022-10-29T23:19:13.997Z,17.50
2022-10-29T23:24:17.766Z,18.67
2022-10-29T23:29:21.531Z,18.88
2022-10-29T23:34:26.702Z,22.67
2022-10-29T23:39:30.465Z,18.88
2022-10-29T23:44:34.229Z,20.70
2022-10-29T23:49:39.390Z,22.67
2022-10-29T23:54:43.172Z,19.25
2022-10-29T23:59:46.941Z,20.75
